createdAt,value
2023-04-09T00:00:05.358Z,100906.16
2023-04-09T00:03:14.316Z,100902.63
2023-04-09T00:06:17.010Z,100909.28
2023-04-09T00:09:20.816Z,100903.94
2023-04-09T00:12:23.339Z,100906.06
2023-04-09T00:15:31.070Z,100904.94
2023-04-09T00:18:33.977Z,100907.53
2023-04-09T00:21:37.059Z,100902.13
2023-04-09T00:24:39.571Z,100900.59
2023-04-09T00:27:41.668Z,100897.97
2023-04-09T00:30:44.223Z,100901.72
2023-04-09T00:33:46.380Z,100896.38
2023-04-09T00:36:49.080Z,100897.53
2023-04-09T00:39:51.293Z,100906.34
2023-04-09T00:42:53.782Z,100896.97
2023-04-09T00:45:56.172Z,100899.13
2023-04-09T00:48:59.669Z,100900.94
2023-04-09T00:52:02.028Z,100892.91
2023-04-09T00:55:06.442Z,100892.72
2023-04-09T00:58:08.793Z,100894.84
2023-04-09T01:01:11.419Z,100895.38
2023-04-09T01:04:13.801Z,100891.69
2023-04-09T01:07:38.040Z,100900.25
2023-04-09T01:10:52.492Z,100895.72
2023-04-09T01:14:14.682Z,100892.28
2023-04-09T01:17:25.335Z,100896.06
2023-04-09T01:20:32.878Z,100893.44
2023-04-09T01:23:42.797Z,100892.03
2023-04-09T01:27:01.529Z,100885.88
2023-04-09T01:30:05.148Z,100890.91
2023-04-09T01:33:09.484Z,100894.34
2023-04-09T01:36:11.743Z,100894.84
2023-04-09T01:39:14.485Z,100895.84
2023-04-09T01:42:17.652Z,100896.03
2023-04-09T01:45:20.869Z,100898.25
2023-04-09T01:48:24.317Z,100898.53
2023-04-09T01:51:27.355Z,100900.59
2023-04-09T01:54:29.520Z,100896.28
2023-04-09T01:57:31.960Z,100896.22
2023-04-09T02:00:47.728Z,100897.22
2023-04-09T02:03:58.652Z,100904.69
2023-04-09T02:07:30.727Z,100895.63
2023-04-09T02:10:35.899Z,100895.63
2023-04-09T02:13:41.673Z,100893.00
2023-04-09T02:16:44.997Z,100891.63
2023-04-09T02:19:48.587Z,100899.34
2023-04-09T02:22:51.145Z,100889.66
2023-04-09T02:25:54.123Z,100884.78
2023-04-09T02:28:56.530Z,100892.06
2023-04-09T02:31:58.748Z,100889.94
2023-04-09T02:35:01.218Z,100892.69
2023-04-09T02:38:03.640Z,100892.31
2023-04-09T02:41:06.086Z,100888.84
2023-04-09T02:44:08.308Z,100890.13
2023-04-09T02:47:10.916Z,100889.66
2023-04-09T02:50:13.356Z,100886.97
2023-04-09T02:53:16.804Z,100889.72
2023-04-09T02:56:18.973Z,100886.47
2023-04-09T02:59:21.373Z,100887.84
2023-04-09T03:02:24.048Z,100878.69
2023-04-09T03:05:26.616Z,100881.63
2023-04-09T03:08:28.815Z,100882.69
2023-04-09T03:11:31.271Z,100885.59
2023-04-09T03:14:35.187Z,100884.31
2023-04-09T03:17:37.859Z,100882.62
2023-04-09T03:20:40.103Z,100879.06
2023-04-09T03:23:43.343Z,100879.31
2023-04-09T03:26:45.787Z,100881.03
2023-04-09T03:29:49.904Z,100886.81
2023-04-09T03:32:52.244Z,100878.66
2023-04-09T03:35:55.650Z,100887.00
2023-04-09T03:39:00.236Z,100890.16
2023-04-09T03:42:03.202Z,100890.09
2023-04-09T03:45:08.934Z,100887.09
2023-04-09T03:48:12.161Z,100898.03
2023-04-09T03:51:15.703Z,100891.09
2023-04-09T03:54:21.579Z,100894.87
2023-04-09T03:57:24.016Z,100898.59
2023-04-09T04:00:26.980Z,100891.91
2023-04-09T04:03:38.147Z,100899.09
2023-04-09T04:06:40.780Z,100899.09
2023-04-09T04:09:43.821Z,100896.47
2023-04-09T04:12:46.884Z,100896.81
2023-04-09T04:15:49.716Z,100898.16
2023-04-09T04:18:55.966Z,100901.34
2023-04-09T04:21:58.705Z,100898.13
2023-04-09T04:25:01.991Z,100902.88
2023-04-09T04:28:04.684Z,100911.94
2023-04-09T04:31:11.539Z,100910.50
2023-04-09T04:34:14.485Z,100918.50
2023-04-09T04:37:17.414Z,100916.16
2023-04-09T04:40:20.211Z,100913.81
2023-04-09T04:43:25.344Z,100925.84
2023-04-09T04:46:29.166Z,100919.97
2023-04-09T04:49:31.706Z,100920.19
2023-04-09T04:52:36.610Z,100912.88
2023-04-09T04:55:42.065Z,100923.56
2023-04-09T04:58:45.317Z,100919.09
2023-04-09T05:01:47.602Z,100917.31
2023-04-09T05:04:50.896Z,100919.97
2023-04-09T05:07:53.823Z,100917.38
2023-04-09T05:10:56.740Z,100918.81
2023-04-09T05:14:01.353Z,100927.56
2023-04-09T05:17:04.117Z,100932.97
2023-04-09T05:20:08.555Z,100922.41
2023-04-09T05:23:12.559Z,100928.47
2023-04-09T05:26:15.553Z,100931.16
2023-04-09T05:29:18.550Z,100936.03
2023-04-09T05:32:21.146Z,100936.09
2023-04-09T05:35:23.760Z,100940.88
2023-04-09T05:38:26.020Z,100939.78
2023-04-09T05:41:29.551Z,100939.44
2023-04-09T05:44:35.951Z,100949.34
2023-04-09T05:47:39.392Z,100945.84
2023-04-09T05:50:53.911Z,100947.50
2023-04-09T05:53:57.065Z,100943.59
2023-04-09T05:56:59.613Z,100945.81
2023-04-09T06:00:03.032Z,100949.41
2023-04-09T06:03:18.836Z,100952.72
2023-04-09T06:06:21.488Z,100956.63
2023-04-09T06:09:23.618Z,100956.38
2023-04-09T06:12:26.291Z,100961.56
2023-04-09T06:15:28.508Z,100960.28
2023-04-09T06:18:31.522Z,100958.25
2023-04-09T06:21:33.754Z,100964.44
2023-04-09T06:24:36.526Z,100958.53
2023-04-09T06:27:39.059Z,100968.78
2023-04-09T06:30:41.719Z,100960.00
2023-04-09T06:33:43.901Z,100959.50
2023-04-09T06:36:46.348Z,100959.28
2023-04-09T06:40:00.288Z,100966.25
2023-04-09T06:43:03.653Z,100960.38
2023-04-09T06:46:06.062Z,100959.88
2023-04-09T06:49:08.562Z,100959.44
2023-04-09T06:52:11.006Z,100959.47
2023-04-09T06:55:13.949Z,100964.28
2023-04-09T06:58:16.464Z,100962.75
2023-04-09T07:01:19.936Z,100965.72
2023-04-09T07:04:22.227Z,100972.25
2023-04-09T07:07:25.853Z,100978.41
2023-04-09T07:10:28.052Z,100983.25
2023-04-09T07:13:31.284Z,100981.72
2023-04-09T07:16:33.579Z,100973.66
2023-04-09T07:19:36.066Z,100974.72
2023-04-09T07:22:38.183Z,100973.94
2023-04-09T07:25:40.701Z,100984.72
2023-04-09T07:28:42.861Z,100993.00
2023-04-09T07:31:45.313Z,100991.69
2023-04-09T07:34:47.557Z,100993.66
2023-04-09T07:37:50.021Z,100987.72
2023-04-09T07:40:52.246Z,100996.06
2023-04-09T07:43:54.649Z,100993.66
2023-04-09T07:46:56.813Z,100993.66
2023-04-09T07:49:59.365Z,100993.13
2023-04-09T07:53:01.513Z,100990.44
2023-04-09T07:56:04.270Z,100996.09
2023-04-09T07:59:06.466Z,101003.88
2023-04-09T08:02:09.035Z,101002.00
2023-04-09T08:05:11.762Z,101001.44
2023-04-09T08:08:13.986Z,100998.97
2023-04-09T08:11:16.594Z,101004.56
2023-04-09T08:14:18.846Z,101000.81
2023-04-09T08:17:22.297Z,100998.91
2023-04-09T08:20:24.692Z,101003.19
2023-04-09T08:23:27.293Z,101005.38
2023-04-09T08:26:29.443Z,101006.97
2023-04-09T08:29:32.128Z,101004.19
2023-04-09T08:32:34.394Z,101009.87
2023-04-09T08:35:38.258Z,101012.59
2023-04-09T08:38:40.716Z,101018.31
2023-04-09T08:41:45.751Z,101017.69
2023-04-09T08:44:47.960Z,101020.81
2023-04-09T08:47:51.738Z,101021.69
2023-04-09T08:50:53.999Z,101026.72
2023-04-09T08:54:03.277Z,101034.22
2023-04-09T08:57:06.970Z,101033.56
2023-04-09T09:00:09.797Z,101032.53
2023-04-09T09:03:15.519Z,101039.72
2023-04-09T09:06:22.767Z,101039.97
2023-04-09T09:09:26.729Z,101041.28
2023-04-09T09:12:40.169Z,101039.56
2023-04-09T09:15:42.372Z,101039.72
2023-04-09T09:18:44.883Z,101042.53
2023-04-09T09:21:59.765Z,101040.09
2023-04-09T09:25:02.225Z,101049.63
2023-04-09T09:28:11.934Z,101045.19
2023-04-09T09:31:16.410Z,101046.25
2023-04-09T09:34:20.195Z,101036.53
2023-04-09T09:37:29.773Z,101039.78
2023-04-09T09:40:32.039Z,101034.66
2023-04-09T09:43:42.309Z,101038.19
2023-04-09T09:46:45.035Z,101037.50
2023-04-09T09:49:52.050Z,101037.63
2023-04-09T09:53:06.982Z,101035.12
2023-04-09T09:56:21.523Z,101036.69
2023-04-09T09:59:30.312Z,101034.91
2023-04-09T10:02:51.220Z,101029.22
2023-04-09T10:05:53.946Z,101030.19
2023-04-09T10:09:03.701Z,101031.50
2023-04-09T10:12:08.700Z,101028.91
2023-04-09T10:15:11.300Z,101029.25
2023-04-09T10:18:15.862Z,101033.53
2023-04-09T10:21:27.098Z,101034.69
2023-04-09T10:24:29.818Z,101033.72
2023-04-09T10:27:32.403Z,101029.94
2023-04-09T10:30:36.522Z,101033.28
2023-04-09T10:33:39.231Z,101033.25
2023-04-09T10:36:49.591Z,101025.59
2023-04-09T10:39:52.842Z,101028.59
2023-04-09T10:42:57.606Z,101023.66
2023-04-09T10:45:59.827Z,101032.63
2023-04-09T10:49:35.283Z,101033.47
2023-04-09T10:52:41.663Z,101025.31
2023-04-09T10:55:50.003Z,101029.69
2023-04-09T10:58:52.268Z,101028.22
2023-04-09T11:01:54.879Z,101023.53
2023-04-09T11:05:16.460Z,101031.75
2023-04-09T11:08:19.300Z,101025.34
2023-04-09T11:11:26.758Z,101021.06
2023-04-09T11:14:29.512Z,101019.94
2023-04-09T11:17:36.521Z,101022.34
2023-04-09T11:20:39.855Z,101017.50
2023-04-09T11:23:43.052Z,101021.09
2023-04-09T11:26:47.204Z,101021.62
2023-04-09T11:29:49.366Z,101021.78
2023-04-09T11:32:52.115Z,101019.75
2023-04-09T11:35:54.475Z,101021.56
2023-04-09T11:38:57.034Z,101021.34
2023-04-09T11:41:59.242Z,101014.09
2023-04-09T11:45:02.296Z,101018.69
2023-04-09T11:48:04.949Z,101010.44
2023-04-09T11:51:07.556Z,101010.84
2023-04-09T11:54:11.900Z,101017.38
2023-04-09T11:57:14.345Z,101011.59
2023-04-09T12:00:18.059Z,101012.69
2023-04-09T12:03:28.421Z,101009.69
2023-04-09T12:06:31.846Z,101012.84
2023-04-09T12:09:34.341Z,101014.09
2023-04-09T12:12:40.673Z,101017.38
2023-04-09T12:15:46.130Z,101023.41
2023-04-09T12:18:50.488Z,101012.19
2023-04-09T12:21:56.050Z,101015.66
2023-04-09T12:24:58.172Z,101008.59
2023-04-09T12:28:01.516Z,101011.09
2023-04-09T12:31:03.808Z,101006.44
2023-04-09T12:34:06.762Z,100999.09
2023-04-09T12:37:09.006Z,101010.03
2023-04-09T12:40:13.987Z,101000.09
2023-04-09T12:43:16.602Z,101004.44
2023-04-09T12:46:19.627Z,100999.09
2023-04-09T12:49:21.829Z,100999.16
2023-04-09T12:52:24.718Z,100993.91
2023-04-09T12:55:27.866Z,100992.38
2023-04-09T12:58:31.337Z,100993.63
2023-04-09T13:01:33.762Z,100993.16
2023-04-09T13:04:36.517Z,100984.62
2023-04-09T13:07:41.424Z,100983.88
2023-04-09T13:10:45.280Z,100978.72
2023-04-09T13:13:47.454Z,100970.53
2023-04-09T13:16:50.191Z,100979.16
2023-04-09T13:19:52.774Z,100974.16
2023-04-09T13:22:55.320Z,100971.34
2023-04-09T13:25:58.631Z,100954.97
2023-04-09T13:29:02.147Z,100966.72
2023-04-09T13:32:07.358Z,100960.53
2023-04-09T13:35:10.891Z,100964.25
2023-04-09T13:38:15.142Z,100959.47
2023-04-09T13:41:17.646Z,100956.84
2023-04-09T13:44:19.748Z,100955.13
2023-04-09T13:47:23.897Z,100960.25
2023-04-09T13:50:26.421Z,100955.37
2023-04-09T13:53:28.886Z,100955.63
2023-04-09T13:56:31.339Z,100954.41
2023-04-09T13:59:33.795Z,100947.88
2023-04-09T14:02:36.085Z,100949.91
2023-04-09T14:05:38.581Z,100944.16
2023-04-09T14:08:40.774Z,100947.25
2023-04-09T14:11:43.169Z,100937.56
2023-04-09T14:14:45.476Z,100947.25
2023-04-09T14:17:47.944Z,100935.41
2023-04-09T14:20:50.233Z,100934.91
2023-04-09T14:23:52.650Z,100936.25
2023-04-09T14:26:54.802Z,100932.63
2023-04-09T14:29:57.246Z,100931.91
2023-04-09T14:32:59.821Z,100929.38
2023-04-09T14:36:02.369Z,100927.69
2023-04-09T14:39:04.623Z,100927.12
2023-04-09T14:42:07.059Z,100930.09
2023-04-09T14:45:09.820Z,100927.69
2023-04-09T14:48:12.322Z,100926.47
2023-04-09T14:51:14.579Z,100920.44
2023-04-09T14:54:17.208Z,100924.81
2023-04-09T14:57:19.400Z,100923.59
2023-04-09T15:00:22.487Z,100920.47
2023-04-09T15:03:24.932Z,100917.59
2023-04-09T15:06:29.001Z,100919.47
2023-04-09T15:09:31.663Z,100915.56
2023-04-09T15:12:34.184Z,100920.78
2023-04-09T15:15:36.437Z,100918.28
2023-04-09T15:18:38.842Z,100911.03
2023-04-09T15:21:41.154Z,100917.00
2023-04-09T15:24:43.670Z,100912.47
2023-04-09T15:27:46.848Z,100911.56
2023-04-09T15:30:49.326Z,100906.84
2023-04-09T15:33:51.599Z,100907.75
2023-04-09T15:36:54.383Z,100905.13
2023-04-09T15:39:56.738Z,100904.00
2023-04-09T15:42:59.191Z,100902.53
2023-04-09T15:46:08.362Z,100905.94
2023-04-09T15:49:10.808Z,100901.13
2023-04-09T15:52:13.420Z,100906.03
2023-04-09T15:55:15.971Z,100905.44
2023-04-09T15:58:18.090Z,100900.34
2023-04-09T16:01:20.633Z,100905.13
2023-04-09T16:04:23.160Z,100898.53
2023-04-09T16:07:25.591Z,100902.34
2023-04-09T16:10:28.048Z,100903.72
2023-04-09T16:13:30.592Z,100902.22
2023-04-09T16:16:33.186Z,100909.62
2023-04-09T16:19:35.594Z,100910.03
2023-04-09T16:22:38.020Z,100911.75
2023-04-09T16:25:40.258Z,100906.31
2023-04-09T16:28:42.716Z,100908.31
2023-04-09T16:31:44.939Z,100905.88
2023-04-09T16:34:47.485Z,100911.28
2023-04-09T16:37:49.713Z,100908.47
2023-04-09T16:40:52.125Z,100911.78
2023-04-09T16:43:54.351Z,100909.06
2023-04-09T16:46:56.891Z,100908.19
2023-04-09T16:49:59.101Z,100914.72
2023-04-09T16:53:04.307Z,100916.50
2023-04-09T16:56:07.109Z,100924.84
2023-04-09T16:59:09.576Z,100923.22
2023-04-09T17:02:11.805Z,100922.44
2023-04-09T17:05:14.328Z,100912.94
2023-04-09T17:08:17.772Z,100920.63
2023-04-09T17:11:21.278Z,100909.94
2023-04-09T17:14:23.547Z,100911.06
2023-04-09T17:17:25.942Z,100915.94
2023-04-09T17:20:29.782Z,100911.69
2023-04-09T17:23:32.237Z,100917.72
2023-04-09T17:26:34.623Z,100911.87
2023-04-09T17:29:37.053Z,100915.75
2023-04-09T17:32:40.075Z,100922.91
2023-04-09T17:35:43.085Z,100923.19
2023-04-09T17:38:46.410Z,100926.75
2023-04-09T17:41:48.811Z,100929.66
2023-04-09T17:44:51.843Z,100935.22
2023-04-09T17:47:54.435Z,100936.88
2023-04-09T17:50:57.660Z,100937.22
2023-04-09T17:54:00.243Z,100941.31
2023-04-09T17:57:04.235Z,100946.75
2023-04-09T18:00:07.596Z,100937.34
2023-04-09T18:03:11.107Z,100942.22
2023-04-09T18:06:15.295Z,100950.09
2023-04-09T18:09:17.632Z,100949.28
2023-04-09T18:12:20.022Z,100947.44
2023-04-09T18:15:22.454Z,100959.03
2023-04-09T18:18:25.040Z,100960.78
2023-04-09T18:21:27.538Z,100960.22
2023-04-09T18:24:30.283Z,100962.72
2023-04-09T18:27:32.458Z,100959.44
2023-04-09T18:30:37.356Z,100960.28
2023-04-09T18:33:39.581Z,100964.34
2023-04-09T18:36:42.801Z,100962.47
2023-04-09T18:39:46.302Z,100968.66
2023-04-09T18:42:52.456Z,100967.84
2023-04-09T18:45:55.097Z,100972.78
2023-04-09T18:48:57.576Z,100966.91
2023-04-09T18:51:59.818Z,100973.16
2023-04-09T18:55:02.267Z,100978.88
2023-04-09T18:58:08.669Z,100977.00
2023-04-09T19:01:13.993Z,100983.03
2023-04-09T19:04:16.316Z,100982.31
2023-04-09T19:07:22.229Z,100979.94
2023-04-09T19:10:24.384Z,100983.16
2023-04-09T19:13:26.825Z,100990.50
2023-04-09T19:16:29.137Z,100990.00
2023-04-09T19:19:31.974Z,100986.53
2023-04-09T19:22:34.149Z,101000.03
2023-04-09T19:25:36.861Z,100986.34
2023-04-09T19:28:38.991Z,100989.63
2023-04-09T19:31:41.598Z,100993.19
2023-04-09T19:34:43.865Z,100988.06
2023-04-09T19:37:46.624Z,100983.25
2023-04-09T19:40:48.993Z,100986.81
2023-04-09T19:43:51.475Z,100989.50
2023-04-09T19:46:53.632Z,100985.50
2023-04-09T19:49:56.189Z,100986.03
2023-04-09T19:52:58.345Z,100986.31
2023-04-09T19:56:01.415Z,100986.63
2023-04-09T19:59:03.770Z,100977.78
2023-04-09T20:02:07.115Z,100983.97
2023-04-09T20:05:10.433Z,100990.94
2023-04-09T20:08:15.727Z,100987.22
2023-04-09T20:11:19.173Z,100989.91
2023-04-09T20:14:21.771Z,100999.56
2023-04-09T20:17:25.093Z,100994.47
2023-04-09T20:20:27.269Z,100993.13
2023-04-09T20:23:30.242Z,100994.75
2023-04-09T20:26:32.540Z,100993.94
2023-04-09T20:29:35.158Z,100995.03
2023-04-09T20:32:41.043Z,101004.44
2023-04-09T20:35:43.646Z,100991.25
2023-04-09T20:38:46.077Z,100994.50
2023-04-09T20:41:48.897Z,101001.44
2023-04-09T20:44:51.070Z,101000.66
2023-04-09T20:47:53.524Z,100996.34
2023-04-09T20:50:56.707Z,100997.44
2023-04-09T20:53:59.651Z,100988.81
2023-04-09T20:57:01.873Z,100998.75
2023-04-09T21:00:04.714Z,101003.84
2023-04-09T21:03:07.091Z,100993.59
2023-04-09T21:06:10.350Z,100992.50
2023-04-09T21:09:12.517Z,100995.19
2023-04-09T21:12:14.946Z,100993.59
2023-04-09T21:15:17.256Z,100989.78
2023-04-09T21:18:19.839Z,100989.75
2023-04-09T21:21:21.998Z,100992.47
2023-04-09T21:24:24.457Z,100992.66
2023-04-09T21:27:26.629Z,100993.47
2023-04-09T21:30:29.645Z,100997.47
2023-04-09T21:33:31.832Z,100994.44
2023-04-09T21:36:37.576Z,100989.06
2023-04-09T21:39:39.786Z,100995.75
2023-04-09T21:42:42.228Z,100999.72
2023-04-09T21:45:44.427Z,100991.12
2023-04-09T21:48:47.042Z,100992.16
2023-04-09T21:51:49.228Z,100993.19
2023-04-09T21:54:51.780Z,100989.44
2023-04-09T21:57:55.331Z,100986.47
2023-04-09T22:00:57.842Z,100986.78
2023-04-09T22:04:01.815Z,100984.94
2023-04-09T22:07:04.189Z,100990.00
2023-04-09T22:10:07.342Z,100991.03
2023-04-09T22:13:09.519Z,100992.34
2023-04-09T22:16:12.067Z,100994.22
2023-04-09T22:19:14.334Z,100996.31
2023-04-09T22:22:17.706Z,101003.84
2023-04-09T22:25:20.056Z,100992.53
2023-04-09T22:28:22.509Z,100994.94
2023-04-09T22:31:27.316Z,101000.97
2023-04-09T22:34:29.801Z,101000.47
2023-04-09T22:37:32.157Z,101000.16
2023-04-09T22:40:34.588Z,101005.16
2023-04-09T22:43:37.130Z,101005.09
2023-04-09T22:46:39.623Z,100998.06
2023-04-09T22:49:41.751Z,101006.59
2023-04-09T22:52:44.352Z,101005.19
2023-04-09T22:55:48.741Z,101006.19
2023-04-09T22:58:51.565Z,100998.16
2023-04-09T23:01:53.948Z,101000.22
2023-04-09T23:04:56.531Z,101007.66
2023-04-09T23:07:58.746Z,100998.25
2023-04-09T23:11:01.202Z,100998.78
2023-04-09T23:14:03.345Z,100995.12
2023-04-09T23:17:06.080Z,100995.12
2023-04-09T23:20:11.184Z,100994.75
2023-04-09T23:23:13.647Z,100996.34
2023-04-09T23:26:15.857Z,100999.78
2023-04-09T23:29:18.363Z,100999.22
2023-04-09T23:32:22.003Z,100994.28
2023-04-09T23:35:24.500Z,100991.53
2023-04-09T23:38:26.724Z,100997.88
2023-04-09T23:41:29.275Z,100993.94
2023-04-09T23:44:32.465Z,100991.19
2023-04-09T23:47:36.383Z,100983.31
2023-04-09T23:50:39.810Z,100987.09
2023-04-09T23:53:42.277Z,100992.66
2023-04-09T23:56:44.444Z,100981.88
2023-04-09T23:59:46.903Z,100988.03
